^^
Station Historical Data
Daily Summary for March 14, 2017 Units:  Both    English   Metric
« Previous Day
Next Day »
Daily Weekly Monthly Yearly Custom
  High: Low: Average:
Temperature: 77.7 °F /  25.4 °C 58.5 °F /  14.7 °C 65.3 °F /  18.5 °C
Dew Point: 63.0 °F /  17.2 °C 54.0 °F /  12.2 °C 57.2 °F /  14 °C
Humidity: 90% 52% 76%
Wind Speed: 16.1mph /  25.9km/h - 1.3mph /  2.1km/h
Wind Gust: 21.0mph /  33.8km/h - -
Wind- - ESE
Pressure: 29.93 in /  1013.4 hPa 29.80 in /  1009 hPa -
Precipitation: 0.17 in /  4.32 mm    
Historical Graphs
 
 
Tabular Data for March 14, 2017
Time Temperature Dew Point Pressure Wind Wind Speed Wind Gust Humidity Rainfall Rate (Hourly) solar Conditions
00:04 65.7 °F /  18.7 °C 54.0 °F /  12.2 °C 29.89in /  1012.1hPa Calm   1.0mph /  1.6km/h 66% 0.00in /  0mm 0.0 W/m2
00:11 65.7 °F /  18.7 °C 54.3 °F /  12.4 °C 29.89in /  1012.1hPa Calm     67% 0.00in /  0mm 0.0 W/m2
00:19 65.5 °F /  18.6 °C 54.3 °F /  12.4 °C 29.89in /  1012.1hPa Calm   1.0mph /  1.6km/h 67% 0.00in /  0mm 0.0 W/m2
00:25 65.5 °F /  18.6 °C 54.3 °F /  12.4 °C 29.89in /  1012.1hPa Calm   2.0mph /  3.2km/h 67% 0.00in /  0mm 0.0 W/m2
00:31 65.5 °F /  18.6 °C 54.7 °F /  12.6 °C 29.89in /  1012.1hPa East 0.9mph /  1.4km/h 3.0mph /  4.8km/h 68% 0.00in /  0mm 0.0 W/m2
00:37 65.5 °F /  18.6 °C 55.0 °F /  12.8 °C 29.89in /  1012.1hPa Calm   2.0mph /  3.2km/h 69% 0.00in /  0mm 0.0 W/m2
00:43 65.1 °F /  18.4 °C 54.7 °F /  12.6 °C 29.89in /  1012.1hPa Calm   1.0mph /  1.6km/h 69% 0.00in /  0mm 0.0 W/m2
00:49 65.1 °F /  18.4 °C 55.0 °F /  12.8 °C 29.89in /  1012.1hPa Calm   2.0mph /  3.2km/h 70% 0.00in /  0mm 0.0 W/m2
00:55 65.1 °F /  18.4 °C 55.0 °F /  12.8 °C 29.89in /  1012.1hPa East 0.9mph /  1.4km/h 3.0mph /  4.8km/h 70% 0.00in /  0mm 0.0 W/m2
01:01 65.1 °F /  18.4 °C 55.0 °F /  12.8 °C 29.89in /  1012.1hPa East 2.9mph /  4.7km/h 3.0mph /  4.8km/h 70% 0.00in /  0mm 0.0 W/m2
01:07 65.1 °F /  18.4 °C 55.0 °F /  12.8 °C 29.88in /  1011.7hPa Calm   4.0mph /  6.4km/h 70% 0.00in /  0mm 0.0 W/m2
01:13 65.1 °F /  18.4 °C 55.0 °F /  12.8 °C 29.88in /  1011.7hPa Calm   2.0mph /  3.2km/h 70% 0.00in /  0mm 0.0 W/m2
01:19 65.1 °F /  18.4 °C 54.7 °F /  12.6 °C 29.88in /  1011.7hPa Calm   2.0mph /  3.2km/h 69% 0.00in /  0mm 0.0 W/m2
01:25 65.1 °F /  18.4 °C 54.7 °F /  12.6 °C 29.88in /  1011.7hPa Calm   1.0mph /  1.6km/h 69% 0.00in /  0mm 0.0 W/m2
01:32 65.1 °F /  18.4 °C 54.7 °F /  12.6 °C 29.87in /  1011.4hPa Calm     69% 0.00in /  0mm 0.0 W/m2
01:38 65.1 °F /  18.4 °C 54.7 °F /  12.6 °C 29.87in /  1011.4hPa Calm     69% 0.00in /  0mm 0.0 W/m2
01:44 65.1 °F /  18.4 °C 54.7 °F /  12.6 °C 29.87in /  1011.4hPa Calm     69% 0.00in /  0mm 0.0 W/m2
01:50 64.9 °F /  18.3 °C 54.5 °F /  12.5 °C 29.87in /  1011.4hPa Calm   1.0mph /  1.6km/h 69% 0.00in /  0mm 0.0 W/m2
01:56 64.8 °F /  18.2 °C 54.3 °F /  12.4 °C 29.87in /  1011.4hPa Calm   1.0mph /  1.6km/h 69% 0.00in /  0mm 0.0 W/m2
01:58 64.8 °F /  18.2 °C 54.3 °F /  12.4 °C 29.87in /  1011.4hPa Calm   1.0mph /  1.6km/h 69% 0.00in /  0mm 0.0 W/m2
02:04 64.6 °F /  18.1 °C 55.0 °F /  12.8 °C 29.87in /  1011.4hPa Calm     71% 0.00in /  0mm 0.0 W/m2
02:10 64.4 °F /  18 °C 54.9 °F /  12.7 °C 29.87in /  1011.4hPa Calm   1.0mph /  1.6km/h 71% 0.00in /  0mm 0.0 W/m2
02:16 64.0 °F /  17.8 °C 54.9 °F /  12.7 °C 29.87in /  1011.4hPa Calm     72% 0.00in /  0mm 0.0 W/m2
02:22 63.9 °F /  17.7 °C 55.0 °F /  12.8 °C 29.87in /  1011.4hPa Calm   1.0mph /  1.6km/h 73% 0.00in /  0mm 0.0 W/m2
02:28 63.7 °F /  17.6 °C 55.2 °F /  12.9 °C 29.87in /  1011.4hPa ESE 0.9mph /  1.4km/h 2.0mph /  3.2km/h 74% 0.00in /  0mm 0.0 W/m2
02:34 63.3 °F /  17.4 °C 54.9 °F /  12.7 °C 29.87in /  1011.4hPa Calm   1.0mph /  1.6km/h 74% 0.00in /  0mm 0.0 W/m2
02:40 63.0 °F /  17.2 °C 54.5 °F /  12.5 °C 29.87in /  1011.4hPa Calm     74% 0.00in /  0mm 0.0 W/m2
02:46 62.8 °F /  17.1 °C 54.7 °F /  12.6 °C 29.86in /  1011.1hPa Calm     75% 0.00in /  0mm 0.0 W/m2
02:53 62.6 °F /  17 °C 54.5 °F /  12.5 °C 29.86in /  1011.1hPa Calm     75% 0.00in /  0mm 0.0 W/m2
02:59 62.4 °F /  16.9 °C 54.3 °F /  12.4 °C 29.87in /  1011.4hPa Calm     75% 0.00in /  0mm 0.0 W/m2
03:05 62.2 °F /  16.8 °C 54.1 °F /  12.3 °C 29.86in /  1011.1hPa Calm     75% 0.00in /  0mm 0.0 W/m2
03:11 62.2 °F /  16.8 °C 54.1 °F /  12.3 °C 29.86in /  1011.1hPa Calm   1.0mph /  1.6km/h 75% 0.00in /  0mm 0.0 W/m2
03:17 62.1 °F /  16.7 °C 54.0 °F /  12.2 °C 29.86in /  1011.1hPa NE 0.9mph /  1.4km/h 4.0mph /  6.4km/h 75% 0.00in /  0mm 0.0 W/m2
03:23 62.1 °F /  16.7 °C 54.0 °F /  12.2 °C 29.87in /  1011.4hPa Calm   2.0mph /  3.2km/h 75% 0.00in /  0mm 0.0 W/m2
03:29 62.2 °F /  16.8 °C 54.1 °F /  12.3 °C 29.87in /  1011.4hPa Calm     75% 0.00in /  0mm 0.0 W/m2
03:36 62.2 °F /  16.8 °C 54.5 °F /  12.5 °C 29.86in /  1011.1hPa Calm     76% 0.00in /  0mm 0.0 W/m2
03:42 62.2 °F /  16.8 °C 54.5 °F /  12.5 °C 29.86in /  1011.1hPa Calm   2.0mph /  3.2km/h 76% 0.00in /  0mm 0.0 W/m2
03:48 62.1 °F /  16.7 °C 54.3 °F /  12.4 °C 29.86in /  1011.1hPa Calm   1.0mph /  1.6km/h 76% 0.00in /  0mm 0.0 W/m2
03:54 62.1 °F /  16.7 °C 54.3 °F /  12.4 °C 29.87in /  1011.4hPa Calm   1.0mph /  1.6km/h 76% 0.00in /  0mm 0.0 W/m2
04:00 62.1 °F /  16.7 °C 54.3 °F /  12.4 °C 29.86in /  1011.1hPa Calm     76% 0.00in /  0mm 0.0 W/m2
04:06 62.1 °F /  16.7 °C 54.7 °F /  12.6 °C 29.86in /  1011.1hPa East 0.9mph /  1.4km/h 1.0mph /  1.6km/h 77% 0.00in /  0mm 0.0 W/m2
04:13 61.9 °F /  16.6 °C 54.7 °F /  12.6 °C 29.86in /  1011.1hPa Calm   1.0mph /  1.6km/h 77% 0.00in /  0mm 0.0 W/m2
04:19 61.9 °F /  16.6 °C 54.9 °F /  12.7 °C 29.86in /  1011.1hPa ENE 0.9mph /  1.4km/h 2.0mph /  3.2km/h 78% 0.00in /  0mm 0.0 W/m2
04:25 62.1 °F /  16.7 °C 55.0 °F /  12.8 °C 29.86in /  1011.1hPa Calm   2.0mph /  3.2km/h 78% 0.00in /  0mm 0.0 W/m2
04:31 61.9 °F /  16.6 °C 54.9 °F /  12.7 °C 29.86in /  1011.1hPa Calm   1.0mph /  1.6km/h 78% 0.00in /  0mm 0.0 W/m2
04:37 61.9 °F /  16.6 °C 54.9 °F /  12.7 °C 29.86in /  1011.1hPa Calm   1.0mph /  1.6km/h 78% 0.00in /  0mm 0.0 W/m2
04:43 61.9 °F /  16.6 °C 55.2 °F /  12.9 °C 29.87in /  1011.4hPa NE 0.9mph /  1.4km/h 1.0mph /  1.6km/h 79% 0.00in /  0mm 0.0 W/m2
04:49 61.9 °F /  16.6 °C 55.2 °F /  12.9 °C 29.87in /  1011.4hPa Calm   3.0mph /  4.8km/h 79% 0.00in /  0mm 0.0 W/m2
04:55 61.9 °F /  16.6 °C 55.2 °F /  12.9 °C 29.87in /  1011.4hPa Calm   2.0mph /  3.2km/h 79% 0.00in /  0mm 0.0 W/m2
05:01 61.9 °F /  16.6 °C 55.2 °F /  12.9 °C 29.87in /  1011.4hPa Calm   2.0mph /  3.2km/h 79% 0.00in /  0mm 0.0 W/m2
05:07 62.1 °F /  16.7 °C 55.4 °F /  13 °C 29.87in /  1011.4hPa Calm   2.0mph /  3.2km/h 79% 0.00in /  0mm 0.0 W/m2
05:13 62.1 °F /  16.7 °C 55.8 °F /  13.2 °C 29.88in /  1011.7hPa East 0.9mph /  1.4km/h 2.0mph /  3.2km/h 80% 0.00in /  0mm 0.0 W/m2
05:19 62.2 °F /  16.8 °C 55.9 °F /  13.3 °C 29.88in /  1011.7hPa Calm   2.0mph /  3.2km/h 80% 0.00in /  0mm 0.0 W/m2
05:25 62.4 °F /  16.9 °C 56.1 °F /  13.4 °C 29.88in /  1011.7hPa Calm   3.0mph /  4.8km/h 80% 0.00in /  0mm 0.0 W/m2
05:31 62.4 °F /  16.9 °C 56.1 °F /  13.4 °C 29.88in /  1011.7hPa Calm     80% 0.00in /  0mm 0.0 W/m2
05:38 62.8 °F /  17.1 °C 56.5 °F /  13.6 °C 29.88in /  1011.7hPa Calm     80% 0.00in /  0mm 0.0 W/m2
05:44 62.8 °F /  17.1 °C 56.5 °F /  13.6 °C 29.88in /  1011.7hPa Calm     80% 0.00in /  0mm 0.0 W/m2
05:50 62.6 °F /  17 °C 56.3 °F /  13.5 °C 29.88in /  1011.7hPa Calm   2.0mph /  3.2km/h 80% 0.00in /  0mm 0.0 W/m2
05:56 62.4 °F /  16.9 °C 56.1 °F /  13.4 °C 29.88in /  1011.7hPa Calm   2.0mph /  3.2km/h 80% 0.00in /  0mm 0.0 W/m2
06:02 62.4 °F /  16.9 °C 56.5 °F /  13.6 °C 29.88in /  1011.7hPa Calm   1.0mph /  1.6km/h 81% 0.00in /  0mm 0.0 W/m2
06:08 62.2 °F /  16.8 °C 56.3 °F /  13.5 °C 29.88in /  1011.7hPa Calm   1.0mph /  1.6km/h 81% 0.00in /  0mm 0.0 W/m2
06:14 62.2 °F /  16.8 °C 56.7 °F /  13.7 °C 29.88in /  1011.7hPa Calm   1.0mph /  1.6km/h 82% 0.00in /  0mm 0.0 W/m2
06:20 62.1 °F /  16.7 °C 56.5 °F /  13.6 °C 29.87in /  1011.4hPa Calm     82% 0.00in /  0mm 0.0 W/m2
06:27 61.9 °F /  16.6 °C 56.7 °F /  13.7 °C 29.87in /  1011.4hPa East 0.9mph /  1.4km/h 1.0mph /  1.6km/h 83% 0.00in /  0mm 0.0 W/m2
06:33 61.7 °F /  16.5 °C 56.5 °F /  13.6 °C 29.87in /  1011.4hPa Calm     83% 0.00in /  0mm 0.0 W/m2
06:39 61.5 °F /  16.4 °C 56.3 °F /  13.5 °C 29.87in /  1011.4hPa Calm   1.0mph /  1.6km/h 83% 0.00in /  0mm 0.0 W/m2
06:45 61.3 °F /  16.3 °C 56.5 °F /  13.6 °C 29.87in /  1011.4hPa ENE 0.9mph /  1.4km/h 1.0mph /  1.6km/h 84% 0.00in /  0mm 0.0 W/m2
06:51 61.2 °F /  16.2 °C 56.3 °F /  13.5 °C 29.87in /  1011.4hPa Calm     84% 0.00in /  0mm 0.0 W/m2
06:57 61.2 °F /  16.2 °C 56.7 °F /  13.7 °C 29.87in /  1011.4hPa Calm   2.0mph /  3.2km/h 85% 0.00in /  0mm 5.0 W/m2
07:03 61.2 °F /  16.2 °C 56.7 °F /  13.7 °C 29.87in /  1011.4hPa Calm   2.0mph /  3.2km/h 85% 0.00in /  0mm 7.0 W/m2
07:10 61.0 °F /  16.1 °C 56.5 °F /  13.6 °C 29.87in /  1011.4hPa Calm   1.0mph /  1.6km/h 85% 0.00in /  0mm 9.0 W/m2
07:16 61.0 °F /  16.1 °C 56.8 °F /  13.8 °C 29.87in /  1011.4hPa Calm   1.0mph /  1.6km/h 86% 0.00in /  0mm 12.0 W/m2
07:22 61.0 °F /  16.1 °C 56.8 °F /  13.8 °C 29.87in /  1011.4hPa Calm     86% 0.00in /  0mm 12.0 W/m2
07:28 61.0 °F /  16.1 °C 57.0 °F /  13.9 °C 29.88in /  1011.7hPa Calm     87% 0.00in /  0mm 14.0 W/m2
07:34 61.0 °F /  16.1 °C 57.0 °F /  13.9 °C 29.88in /  1011.7hPa Calm   1.0mph /  1.6km/h 87% 0.00in /  0mm 18.0 W/m2
07:40 61.2 °F /  16.2 °C 57.2 °F /  14 °C 29.88in /  1011.7hPa Calm   2.0mph /  3.2km/h 87% 0.00in /  0mm 19.0 W/m2
07:46 61.3 °F /  16.3 °C 57.4 °F /  14.1 °C 29.88in /  1011.7hPa Calm   3.0mph /  4.8km/h 87% 0.00in /  0mm 21.0 W/m2
07:53 61.7 °F /  16.5 °C 57.7 °F /  14.3 °C 29.88in /  1011.7hPa NE 0.9mph /  1.4km/h 3.0mph /  4.8km/h 87% 0.00in /  0mm 21.0 W/m2
07:59 62.1 °F /  16.7 °C 57.7 °F /  14.3 °C 29.88in /  1011.7hPa Calm   1.0mph /  1.6km/h 86% 0.00in /  0mm 23.0 W/m2
08:05 62.4 °F /  16.9 °C 58.5 °F /  14.7 °C 29.89in /  1012.1hPa Calm   2.0mph /  3.2km/h 87% 0.00in /  0mm 25.0 W/m2
08:11 63.0 °F /  17.2 °C 58.6 °F /  14.8 °C 29.89in /  1012.1hPa Calm   1.0mph /  1.6km/h 86% 0.00in /  0mm 26.0 W/m2
08:17 63.7 °F /  17.6 °C 59.0 °F /  15 °C 29.89in /  1012.1hPa NNE 2.9mph /  4.7km/h 4.0mph /  6.4km/h 85% 0.00in /  0mm 26.0 W/m2
08:23 64.0 °F /  17.8 °C 59.2 °F /  15.1 °C 29.89in /  1012.1hPa ESE 0.9mph /  1.4km/h 3.0mph /  4.8km/h 84% 0.00in /  0mm 28.0 W/m2
08:29 64.8 °F /  18.2 °C 59.2 °F /  15.1 °C 29.89in /  1012.1hPa NE 2.0mph /  3.2km/h 4.0mph /  6.4km/h 82% 0.00in /  0mm 28.0 W/m2
08:35 65.5 °F /  18.6 °C 59.2 °F /  15.1 °C 29.90in /  1012.4hPa East 4.0mph /  6.4km/h 6.0mph /  9.7km/h 80% 0.00in /  0mm 28.0 W/m2
08:42 66.0 °F /  18.9 °C 59.4 °F /  15.2 °C 29.90in /  1012.4hPa Calm   6.0mph /  9.7km/h 79% 0.00in /  0mm 32.0 W/m2
08:48 66.6 °F /  19.2 °C 59.5 °F /  15.3 °C 29.90in /  1012.4hPa East 0.9mph /  1.4km/h 4.0mph /  6.4km/h 78% 0.00in /  0mm 32.0 W/m2
08:54 66.9 °F /  19.4 °C 59.5 °F /  15.3 °C 29.90in /  1012.4hPa North 4.0mph /  6.4km/h 4.0mph /  6.4km/h 77% 0.00in /  0mm 32.0 W/m2
09:00 67.3 °F /  19.6 °C 59.5 °F /  15.3 °C 29.90in /  1012.4hPa Calm   5.0mph /  8km/h 76% 0.00in /  0mm 32.0 W/m2
09:06 67.8 °F /  19.9 °C 59.5 °F /  15.3 °C 29.90in /  1012.4hPa NW 4.0mph /  6.4km/h 4.0mph /  6.4km/h 75% 0.00in /  0mm 33.0 W/m2
09:12 68.2 °F /  20.1 °C 59.5 °F /  15.3 °C 29.89in /  1012.1hPa NNE 2.9mph /  4.7km/h 5.0mph /  8km/h 74% 0.00in /  0mm 35.0 W/m2
09:18 68.5 °F /  20.3 °C 59.5 °F /  15.3 °C 29.90in /  1012.4hPa Calm   3.0mph /  4.8km/h 73% 0.00in /  0mm 35.0 W/m2
09:25 69.1 °F /  20.6 °C 60.1 °F /  15.6 °C 29.89in /  1012.1hPa Calm   4.0mph /  6.4km/h 73% 0.00in /  0mm 37.0 W/m2
09:31 69.4 °F /  20.8 °C 60.1 °F /  15.6 °C 29.89in /  1012.1hPa NW 2.0mph /  3.2km/h 3.0mph /  4.8km/h 72% 0.00in /  0mm 39.0 W/m2
09:37 69.6 °F /  20.9 °C 59.7 °F /  15.4 °C 29.89in /  1012.1hPa ENE 2.0mph /  3.2km/h 2.0mph /  3.2km/h 71% 0.00in /  0mm 44.0 W/m2
09:43 70.3 °F /  21.3 °C 60.4 °F /  15.8 °C 29.89in /  1012.1hPa ENE 2.0mph /  3.2km/h 2.0mph /  3.2km/h 71% 0.00in /  0mm 98.0 W/m2
09:49 70.9 °F /  21.6 °C 60.3 °F /  15.7 °C 29.89in /  1012.1hPa Calm   4.0mph /  6.4km/h 69% 0.00in /  0mm 656.0 W/m2
09:55 71.2 °F /  21.8 °C 59.7 °F /  15.4 °C 29.89in /  1012.1hPa North 4.9mph /  7.9km/h 6.0mph /  9.7km/h 67% 0.00in /  0mm 721.0 W/m2
10:01 71.8 °F /  22.1 °C 60.3 °F /  15.7 °C 29.89in /  1012.1hPa Calm   5.0mph /  8km/h 67% 0.00in /  0mm 113.0 W/m2
10:07 71.8 °F /  22.1 °C 60.3 °F /  15.7 °C 29.88in /  1011.7hPa Calm   1.0mph /  1.6km/h 67% 0.00in /  0mm 135.0 W/m2
10:13 71.8 °F /  22.1 °C 60.3 °F /  15.7 °C 29.89in /  1012.1hPa Calm   3.0mph /  4.8km/h 67% 0.00in /  0mm 155.0 W/m2
10:20 71.8 °F /  22.1 °C 59.7 °F /  15.4 °C 29.89in /  1012.1hPa Calm   3.0mph /  4.8km/h 66% 0.00in /  0mm 113.0 W/m2
10:26 71.8 °F /  22.1 °C 60.3 °F /  15.7 °C 29.89in /  1012.1hPa Calm     67% 0.00in /  0mm 183.0 W/m2
10:32 72.5 °F /  22.5 °C 60.1 °F /  15.6 °C 29.88in /  1011.7hPa Calm   1.0mph /  1.6km/h 65% 0.00in /  0mm 861.0 W/m2
10:38 73.6 °F /  23.1 °C 60.3 °F /  15.7 °C 29.88in /  1011.7hPa NNW 2.0mph /  3.2km/h 3.0mph /  4.8km/h 63% 0.00in /  0mm 905.0 W/m2
10:44 74.8 °F /  23.8 °C 60.1 °F /  15.6 °C 29.88in /  1011.7hPa ENE 4.0mph /  6.4km/h 5.0mph /  8km/h 60% 0.00in /  0mm 886.0 W/m2
10:50 75.9 °F /  24.4 °C 59.5 °F /  15.3 °C 29.88in /  1011.7hPa NNE 2.9mph /  4.7km/h 7.0mph /  11.3km/h 57% 0.00in /  0mm 905.0 W/m2
10:56 76.6 °F /  24.8 °C 60.3 °F /  15.7 °C 29.88in /  1011.7hPa SSE 0.9mph /  1.4km/h 3.0mph /  4.8km/h 57% 0.00in /  0mm 972.0 W/m2
11:03 77.7 °F /  25.4 °C 60.8 °F /  16 °C 29.88in /  1011.7hPa NNW 0.9mph /  1.4km/h 2.0mph /  3.2km/h 56% 0.00in /  0mm 325.0 W/m2
11:09 77.7 °F /  25.4 °C 60.3 °F /  15.7 °C 29.88in /  1011.7hPa NE 2.9mph /  4.7km/h 5.0mph /  8km/h 55% 0.00in /  0mm 248.0 W/m2
11:15 77.0 °F /  25 °C 60.1 °F /  15.6 °C 29.88in /  1011.7hPa NNE 2.0mph /  3.2km/h 4.0mph /  6.4km/h 56% 0.00in /  0mm 243.0 W/m2
11:21 76.3 °F /  24.6 °C 59.0 °F /  15 °C 29.88in /  1011.7hPa Calm   1.0mph /  1.6km/h 55% 0.00in /  0mm 223.0 W/m2
11:27 76.1 °F /  24.5 °C 59.7 °F /  15.4 °C 29.88in /  1011.7hPa Calm   1.0mph /  1.6km/h 57% 0.00in /  0mm 229.0 W/m2
11:35 75.7 °F /  24.3 °C 59.9 °F /  15.5 °C 29.87in /  1011.4hPa North 0.9mph /  1.4km/h 3.0mph /  4.8km/h 58% 0.00in /  0mm 269.0 W/m2
11:41 75.6 °F /  24.2 °C 60.6 °F /  15.9 °C 29.87in /  1011.4hPa Calm   1.0mph /  1.6km/h 60% 0.00in /  0mm 422.0 W/m2
11:47 75.7 °F /  24.3 °C 59.9 °F /  15.5 °C 29.87in /  1011.4hPa Calm   3.0mph /  4.8km/h 58% 0.00in /  0mm 225.0 W/m2
11:54 75.4 °F /  24.1 °C 60.1 °F /  15.6 °C 29.87in /  1011.4hPa Calm   2.0mph /  3.2km/h 59% 0.00in /  0mm 121.0 W/m2
12:00 75.0 °F /  23.9 °C 59.7 °F /  15.4 °C 29.87in /  1011.4hPa Calm   2.0mph /  3.2km/h 59% 0.00in /  0mm 114.0 W/m2
12:06 74.7 °F /  23.7 °C 59.9 °F /  15.5 °C 29.87in /  1011.4hPa WSW 0.9mph /  1.4km/h 4.0mph /  6.4km/h 60% 0.00in /  0mm 83.0 W/m2
12:12 74.1 °F /  23.4 °C 59.7 °F /  15.4 °C 29.87in /  1011.4hPa Calm   3.0mph /  4.8km/h 61% 0.00in /  0mm 91.0 W/m2
12:18 73.9 °F /  23.3 °C 61.0 °F /  16.1 °C 29.86in /  1011.1hPa Calm   3.0mph /  4.8km/h 64% 0.00in /  0mm 134.0 W/m2
12:24 73.8 °F /  23.2 °C 60.8 °F /  16 °C 29.86in /  1011.1hPa Calm   1.0mph /  1.6km/h 64% 0.00in /  0mm 179.0 W/m2
12:30 73.8 °F /  23.2 °C 60.8 °F /  16 °C 29.86in /  1011.1hPa SSW 0.9mph /  1.4km/h 2.0mph /  3.2km/h 64% 0.00in /  0mm 167.0 W/m2
12:36 73.8 °F /  23.2 °C 61.3 °F /  16.3 °C 29.85in /  1010.7hPa Calm   4.0mph /  6.4km/h 65% 0.00in /  0mm 107.0 W/m2
12:43 73.6 °F /  23.1 °C 61.2 °F /  16.2 °C 29.85in /  1010.7hPa SE 0.9mph /  1.4km/h 4.0mph /  6.4km/h 65% 0.00in /  0mm 135.0 W/m2
12:49 73.4 °F /  23 °C 61.7 °F /  16.5 °C 29.85in /  1010.7hPa SE 2.9mph /  4.7km/h 4.0mph /  6.4km/h 67% 0.00in /  0mm 258.0 W/m2
12:55 73.6 °F /  23.1 °C 61.5 °F /  16.4 °C 29.84in /  1010.4hPa SSE 2.0mph /  3.2km/h 4.0mph /  6.4km/h 66% 0.00in /  0mm 290.0 W/m2
13:01 74.1 °F /  23.4 °C 63.0 °F /  17.2 °C 29.83in /  1010hPa SE 4.0mph /  6.4km/h 8.0mph /  12.9km/h 68% 0.00in /  0mm 1253.0 W/m2
13:07 75.4 °F /  24.1 °C 62.8 °F /  17.1 °C 29.83in /  1010hPa SSE 4.9mph /  7.9km/h 8.0mph /  12.9km/h 65% 0.00in /  0mm 1195.0 W/m2
13:13 75.9 °F /  24.4 °C 61.9 °F /  16.6 °C 29.83in /  1010hPa SE 4.9mph /  7.9km/h 15.0mph /  24.1km/h 62% 0.00in /  0mm 1215.0 W/m2
13:19 75.4 °F /  24.1 °C 60.4 °F /  15.8 °C 29.83in /  1010hPa SE 6.0mph /  9.7km/h 10.0mph /  16.1km/h 60% 0.00in /  0mm 213.0 W/m2
13:26 74.5 °F /  23.6 °C 59.7 °F /  15.4 °C 29.83in /  1010hPa SE 4.0mph /  6.4km/h 11.0mph /  17.7km/h 60% 0.00in /  0mm 216.0 W/m2
13:32 73.8 °F /  23.2 °C 60.4 °F /  15.8 °C 29.83in /  1010hPa East 4.9mph /  7.9km/h 7.0mph /  11.3km/h 63% 0.00in /  0mm 276.0 W/m2
13:38 73.9 °F /  23.3 °C 60.1 °F /  15.6 °C 29.82in /  1009.7hPa SE 4.0mph /  6.4km/h 6.0mph /  9.7km/h 62% 0.00in /  0mm 350.0 W/m2
13:44 74.8 °F /  23.8 °C 60.4 °F /  15.8 °C 29.82in /  1009.7hPa NE 2.0mph /  3.2km/h 5.0mph /  8km/h 61% 0.00in /  0mm 1283.0 W/m2
13:50 75.6 °F /  24.2 °C 59.2 °F /  15.1 °C 29.82in /  1009.7hPa East 2.0mph /  3.2km/h 5.0mph /  8km/h 57% 0.00in /  0mm 359.0 W/m2
13:56 75.7 °F /  24.3 °C 57.4 °F /  14.1 °C 29.81in /  1009.4hPa NE 4.9mph /  7.9km/h 7.0mph /  11.3km/h 53% 0.00in /  0mm 214.0 W/m2
14:02 75.6 °F /  24.2 °C 56.7 °F /  13.7 °C 29.80in /  1009hPa East 2.9mph /  4.7km/h 4.0mph /  6.4km/h 52% 0.00in /  0mm 216.0 W/m2
14:09 75.6 °F /  24.2 °C 56.7 °F /  13.7 °C 29.80in /  1009hPa East 4.0mph /  6.4km/h 4.0mph /  6.4km/h 52% 0.00in /  0mm 316.0 W/m2
14:13 75.7 °F /  24.3 °C 56.8 °F /  13.8 °C 29.80in /  1009hPa Calm   4.0mph /  6.4km/h 52% 0.00in /  0mm 387.0 W/m2
14:19 76.1 °F /  24.5 °C 57.7 °F /  14.3 °C 29.80in /  1009hPa NE 0.9mph /  1.4km/h 4.0mph /  6.4km/h 53% 0.00in /  0mm 366.0 W/m2
14:25 76.5 °F /  24.7 °C 57.6 °F /  14.2 °C 29.80in /  1009hPa NE 0.9mph /  1.4km/h 10.0mph /  16.1km/h 52% 0.00in /  0mm 250.0 W/m2
14:31 76.5 °F /  24.7 °C 58.1 °F /  14.5 °C 29.80in /  1009hPa ENE 6.0mph /  9.7km/h 9.0mph /  14.5km/h 53% 0.00in /  0mm 181.0 W/m2
14:37 76.1 °F /  24.5 °C 57.7 °F /  14.3 °C 29.80in /  1009hPa ESE 2.0mph /  3.2km/h 7.0mph /  11.3km/h 53% 0.00in /  0mm 128.0 W/m2
14:43 75.7 °F /  24.3 °C 57.9 °F /  14.4 °C 29.82in /  1009.7hPa SE 12.1mph /  19.5km/h 12.1mph /  19.5km/h 54% 0.00in /  0mm 77.0 W/m2
14:49 73.0 °F /  22.8 °C 57.4 °F /  14.1 °C 29.80in /  1009hPa South 4.0mph /  6.4km/h 18.0mph /  29km/h 58% 0.00in /  0mm 42.0 W/m2
14:56 70.3 °F /  21.3 °C 56.7 °F /  13.7 °C 29.80in /  1009hPa SSE 14.1mph /  22.7km/h 15.0mph /  24.1km/h 62% 0.00in /  0mm 123.0 W/m2
15:02 68.0 °F /  20 °C 55.8 °F /  13.2 °C 29.80in /  1009hPa SSE 16.1mph /  25.9km/h 21.0mph /  33.8km/h 65% 0.00in /  0mm 54.0 W/m2
15:08 66.2 °F /  19 °C 56.1 °F /  13.4 °C 29.80in /  1009hPa SSW 14.1mph /  22.7km/h 20.0mph /  32.2km/h 70% 0.00in /  0mm 46.0 W/m2
15:14 64.6 °F /  18.1 °C 57.2 °F /  14 °C 29.81in /  1009.4hPa SSW 8.9mph /  14.3km/h 14.0mph /  22.5km/h 77% 0.00in /  0mm 23.0 W/m2
15:20 64.0 °F /  17.8 °C 57.4 °F /  14.1 °C 29.81in /  1009.4hPa Calm   10.0mph /  16.1km/h 79% 0.00in /  0mm 23.0 W/m2
15:26 63.9 °F /  17.7 °C 56.8 °F /  13.8 °C 29.82in /  1009.7hPa SE 8.9mph /  14.3km/h 12.0mph /  19.3km/h 78% 0.00in /  0mm 12.0 W/m2
15:32 63.9 °F /  17.7 °C 57.9 °F /  14.4 °C 29.83in /  1010hPa SSW 0.9mph /  1.4km/h 11.0mph /  17.7km/h 81% 0.01in /  0.25mm 12.0 W/m2
15:38 62.8 °F /  17.1 °C 57.6 °F /  14.2 °C 29.84in /  1010.4hPa WSW 4.9mph /  7.9km/h 14.0mph /  22.5km/h 83% 0.09in /  2.29mm 9.0 W/m2
15:45 61.5 °F /  16.4 °C 56.7 °F /  13.7 °C 29.84in /  1010.4hPa ESE 8.9mph /  14.3km/h 16.0mph /  25.7km/h 84% 0.11in /  2.79mm 7.0 W/m2
15:51 61.0 °F /  16.1 °C 56.8 °F /  13.8 °C 29.83in /  1010hPa SE 4.0mph /  6.4km/h 10.0mph /  16.1km/h 86% 0.12in /  3.05mm 14.0 W/m2
15:57 60.6 °F /  15.9 °C 56.7 °F /  13.7 °C 29.83in /  1010hPa ESE 6.0mph /  9.7km/h 10.0mph /  16.1km/h 87% 0.15in /  3.81mm 25.0 W/m2
16:03 60.4 °F /  15.8 °C 56.8 °F /  13.8 °C 29.84in /  1010.4hPa SSW 2.9mph /  4.7km/h 6.0mph /  9.7km/h 88% 0.16in /  4.06mm 26.0 W/m2
16:09 60.4 °F /  15.8 °C 57.2 °F /  14 °C 29.85in /  1010.7hPa SW 4.0mph /  6.4km/h 7.0mph /  11.3km/h 89% 0.17in /  4.32mm 35.0 W/m2
16:15 60.6 °F /  15.9 °C 57.4 °F /  14.1 °C 29.84in /  1010.4hPa SE 0.9mph /  1.4km/h 5.0mph /  8km/h 89% 0.17in /  4.32mm 67.0 W/m2
16:22 60.6 °F /  15.9 °C 57.4 °F /  14.1 °C 29.84in /  1010.4hPa Calm   4.0mph /  6.4km/h 89% 0.17in /  4.32mm 156.0 W/m2
16:28 61.0 °F /  16.1 °C 58.1 °F /  14.5 °C 29.84in /  1010.4hPa SSE 6.0mph /  9.7km/h 10.0mph /  16.1km/h 90% 0.17in /  4.32mm 174.0 W/m2
16:34 61.3 °F /  16.3 °C 58.5 °F /  14.7 °C 29.85in /  1010.7hPa Calm   4.0mph /  6.4km/h 90% 0.13in /  3.3mm 105.0 W/m2
16:40 61.5 °F /  16.4 °C 57.9 °F /  14.4 °C 29.85in /  1010.7hPa Calm   10.0mph /  16.1km/h 88% 0.06in /  1.52mm 160.0 W/m2
16:46 61.7 °F /  16.5 °C 58.5 °F /  14.7 °C 29.85in /  1010.7hPa SW 2.9mph /  4.7km/h 4.0mph /  6.4km/h 89% 0.06in /  1.52mm 107.0 W/m2
16:52 61.9 °F /  16.6 °C 58.3 °F /  14.6 °C 29.85in /  1010.7hPa SE 2.0mph /  3.2km/h 10.0mph /  16.1km/h 88% 0.04in /  1.02mm 116.0 W/m2
16:58 62.1 °F /  16.7 °C 57.6 °F /  14.2 °C 29.85in /  1010.7hPa SE 2.9mph /  4.7km/h 11.0mph /  17.7km/h 85% 0.02in /  0.51mm 79.0 W/m2
17:04 62.4 °F /  16.9 °C 58.5 °F /  14.7 °C 29.84in /  1010.4hPa SE 0.9mph /  1.4km/h 7.0mph /  11.3km/h 87% 0.02in /  0.51mm 67.0 W/m2
17:10 62.4 °F /  16.9 °C 57.9 °F /  14.4 °C 29.85in /  1010.7hPa SSE 0.9mph /  1.4km/h 4.0mph /  6.4km/h 85% 0.01in /  0.25mm 63.0 W/m2
17:17 62.4 °F /  16.9 °C 57.9 °F /  14.4 °C 29.85in /  1010.7hPa Calm   3.0mph /  4.8km/h 85% 0.00in /  0mm 100.0 W/m2
17:23 62.6 °F /  17 °C 57.7 °F /  14.3 °C 29.85in /  1010.7hPa Calm   7.0mph /  11.3km/h 84% 0.00in /  0mm 113.0 W/m2
17:29 62.6 °F /  17 °C 58.1 °F /  14.5 °C 29.85in /  1010.7hPa SSW 0.9mph /  1.4km/h 3.0mph /  4.8km/h 85% 0.00in /  0mm 98.0 W/m2
17:35 62.6 °F /  17 °C 57.4 °F /  14.1 °C 29.85in /  1010.7hPa ESE 0.9mph /  1.4km/h 4.0mph /  6.4km/h 83% 0.00in /  0mm 104.0 W/m2
17:41 62.6 °F /  17 °C 57.0 °F /  13.9 °C 29.85in /  1010.7hPa SE 0.9mph /  1.4km/h 5.0mph /  8km/h 82% 0.00in /  0mm 95.0 W/m2
17:47 62.8 °F /  17.1 °C 56.8 °F /  13.8 °C 29.85in /  1010.7hPa SE 0.9mph /  1.4km/h 5.0mph /  8km/h 81% 0.00in /  0mm 97.0 W/m2
17:53 62.8 °F /  17.1 °C 56.8 °F /  13.8 °C 29.85in /  1010.7hPa SSE 0.9mph /  1.4km/h 4.0mph /  6.4km/h 81% 0.00in /  0mm 93.0 W/m2
17:59 63.0 °F /  17.2 °C 57.4 °F /  14.1 °C 29.85in /  1010.7hPa SE 4.0mph /  6.4km/h 5.0mph /  8km/h 82% 0.00in /  0mm 93.0 W/m2
18:05 63.0 °F /  17.2 °C 57.4 °F /  14.1 °C 29.85in /  1010.7hPa ESE 2.0mph /  3.2km/h 3.0mph /  4.8km/h 82% 0.00in /  0mm 93.0 W/m2
18:11 63.1 °F /  17.3 °C 57.9 °F /  14.4 °C 29.85in /  1010.7hPa Calm   1.0mph /  1.6km/h 83% 0.00in /  0mm 91.0 W/m2
18:17 63.1 °F /  17.3 °C 57.9 °F /  14.4 °C 29.85in /  1010.7hPa Calm   2.0mph /  3.2km/h 83% 0.00in /  0mm 111.0 W/m2
18:24 63.5 °F /  17.5 °C 57.9 °F /  14.4 °C 29.85in /  1010.7hPa Calm   2.0mph /  3.2km/h 82% 0.00in /  0mm 111.0 W/m2
18:30 63.9 °F /  17.7 °C 58.6 °F /  14.8 °C 29.85in /  1010.7hPa Calm   1.0mph /  1.6km/h 83% 0.00in /  0mm 151.0 W/m2
18:36 64.8 °F /  18.2 °C 59.2 °F /  15.1 °C 29.85in /  1010.7hPa Calm   1.0mph /  1.6km/h 82% 0.00in /  0mm 132.0 W/m2
18:42 65.5 °F /  18.6 °C 58.5 °F /  14.7 °C 29.85in /  1010.7hPa SE 0.9mph /  1.4km/h 2.0mph /  3.2km/h 78% 0.00in /  0mm 63.0 W/m2
18:48 65.5 °F /  18.6 °C 58.1 °F /  14.5 °C 29.86in /  1011.1hPa SSW 0.9mph /  1.4km/h 2.0mph /  3.2km/h 77% 0.00in /  0mm 46.0 W/m2
18:54 65.5 °F /  18.6 °C 58.1 °F /  14.5 °C 29.86in /  1011.1hPa Calm   1.0mph /  1.6km/h 77% 0.00in /  0mm 37.0 W/m2
19:00 65.1 °F /  18.4 °C 58.5 °F /  14.7 °C 29.86in /  1011.1hPa ESE 6.0mph /  9.7km/h 6.0mph /  9.7km/h 79% 0.00in /  0mm 28.0 W/m2
19:06 64.9 °F /  18.3 °C 56.8 °F /  13.8 °C 29.85in /  1010.7hPa SE 0.9mph /  1.4km/h 2.0mph /  3.2km/h 75% 0.00in /  0mm 16.0 W/m2
19:13 64.8 °F /  18.2 °C 57.0 °F /  13.9 °C 29.85in /  1010.7hPa Calm   1.0mph /  1.6km/h 76% 0.00in /  0mm 7.0 W/m2
19:19 64.4 °F /  18 °C 57.4 °F /  14.1 °C 29.85in /  1010.7hPa Calm   1.0mph /  1.6km/h 78% 0.00in /  0mm 0.0 W/m2
19:27 64.0 °F /  17.8 °C 57.4 °F /  14.1 °C 29.85in /  1010.7hPa Calm   3.0mph /  4.8km/h 79% 0.00in /  0mm 0.0 W/m2
19:33 63.7 °F /  17.6 °C 58.1 °F /  14.5 °C 29.85in /  1010.7hPa ENE 2.9mph /  4.7km/h 4.0mph /  6.4km/h 82% 0.00in /  0mm 0.0 W/m2
19:39 63.5 °F /  17.5 °C 57.9 °F /  14.4 °C 29.85in /  1010.7hPa SE 2.9mph /  4.7km/h 7.0mph /  11.3km/h 82% 0.00in /  0mm 0.0 W/m2
19:45 63.1 °F /  17.3 °C 57.6 °F /  14.2 °C 29.85in /  1010.7hPa ESE 2.9mph /  4.7km/h 3.0mph /  4.8km/h 82% 0.00in /  0mm 0.0 W/m2
19:51 63.0 °F /  17.2 °C 57.7 °F /  14.3 °C 29.86in /  1011.1hPa NNE 2.0mph /  3.2km/h 3.0mph /  4.8km/h 83% 0.00in /  0mm 0.0 W/m2
19:57 62.6 °F /  17 °C 57.7 °F /  14.3 °C 29.87in /  1011.4hPa NNE 0.9mph /  1.4km/h 3.0mph /  4.8km/h 84% 0.00in /  0mm 0.0 W/m2
20:03 62.4 °F /  16.9 °C 57.9 °F /  14.4 °C 29.88in /  1011.7hPa Calm     85% 0.00in /  0mm 0.0 W/m2
20:10 62.1 °F /  16.7 °C 57.6 °F /  14.2 °C 29.88in /  1011.7hPa Calm   3.0mph /  4.8km/h 85% 0.00in /  0mm 0.0 W/m2
20:16 62.1 °F /  16.7 °C 57.7 °F /  14.3 °C 29.89in /  1012.1hPa Calm   1.0mph /  1.6km/h 86% 0.00in /  0mm 0.0 W/m2
20:24 61.9 °F /  16.6 °C 57.9 °F /  14.4 °C 29.89in /  1012.1hPa Calm   2.0mph /  3.2km/h 87% 0.00in /  0mm 0.0 W/m2
20:30 61.7 °F /  16.5 °C 57.7 °F /  14.3 °C 29.90in /  1012.4hPa Calm   4.0mph /  6.4km/h 87% 0.00in /  0mm 0.0 W/m2
20:36 61.5 °F /  16.4 °C 57.4 °F /  14.1 °C 29.89in /  1012.1hPa NNE 2.9mph /  4.7km/h 3.0mph /  4.8km/h 86% 0.00in /  0mm 0.0 W/m2
20:42 61.3 °F /  16.3 °C 57.2 °F /  14 °C 29.90in /  1012.4hPa Calm   4.0mph /  6.4km/h 86% 0.00in /  0mm 0.0 W/m2
20:48 61.3 °F /  16.3 °C 57.2 °F /  14 °C 29.90in /  1012.4hPa NE 0.9mph /  1.4km/h 3.0mph /  4.8km/h 86% 0.00in /  0mm 0.0 W/m2
20:54 61.2 °F /  16.2 °C 57.2 °F /  14 °C 29.90in /  1012.4hPa ESE 4.0mph /  6.4km/h 5.0mph /  8km/h 87% 0.00in /  0mm 0.0 W/m2
21:01 61.2 °F /  16.2 °C 57.2 °F /  14 °C 29.90in /  1012.4hPa ENE 0.9mph /  1.4km/h 6.0mph /  9.7km/h 87% 0.00in /  0mm 0.0 W/m2
21:07 61.0 °F /  16.1 °C 57.0 °F /  13.9 °C 29.90in /  1012.4hPa East 2.9mph /  4.7km/h 5.0mph /  8km/h 87% 0.00in /  0mm 0.0 W/m2
21:13 61.0 °F /  16.1 °C 57.0 °F /  13.9 °C 29.90in /  1012.4hPa NE 0.9mph /  1.4km/h 4.0mph /  6.4km/h 87% 0.00in /  0mm 0.0 W/m2
21:19 60.6 °F /  15.9 °C 56.5 °F /  13.6 °C 29.90in /  1012.4hPa NE 2.9mph /  4.7km/h 5.0mph /  8km/h 86% 0.00in /  0mm 0.0 W/m2
21:25 60.6 °F /  15.9 °C 56.5 °F /  13.6 °C 29.90in /  1012.4hPa Calm   3.0mph /  4.8km/h 86% 0.00in /  0mm 0.0 W/m2
21:31 60.4 °F /  15.8 °C 56.5 °F /  13.6 °C 29.90in /  1012.4hPa Calm   2.0mph /  3.2km/h 87% 0.00in /  0mm 0.0 W/m2
21:37 60.4 °F /  15.8 °C 56.5 °F /  13.6 °C 29.90in /  1012.4hPa Calm   3.0mph /  4.8km/h 87% 0.00in /  0mm 0.0 W/m2
21:44 60.3 °F /  15.7 °C 56.3 °F /  13.5 °C 29.90in /  1012.4hPa Calm   2.0mph /  3.2km/h 87% 0.00in /  0mm 0.0 W/m2
21:50 60.3 °F /  15.7 °C 56.7 °F /  13.7 °C 29.90in /  1012.4hPa Calm   3.0mph /  4.8km/h 88% 0.00in /  0mm 0.0 W/m2
21:56 60.3 °F /  15.7 °C 56.7 °F /  13.7 °C 29.90in /  1012.4hPa Calm   3.0mph /  4.8km/h 88% 0.00in /  0mm 0.0 W/m2
22:02 60.1 °F /  15.6 °C 56.5 °F /  13.6 °C 29.91in /  1012.8hPa Calm   2.0mph /  3.2km/h 88% 0.00in /  0mm 0.0 W/m2
22:08 59.9 °F /  15.5 °C 56.7 °F /  13.7 °C 29.91in /  1012.8hPa NNE 2.0mph /  3.2km/h 5.0mph /  8km/h 89% 0.00in /  0mm 0.0 W/m2
22:14 59.7 °F /  15.4 °C 56.1 °F /  13.4 °C 29.91in /  1012.8hPa Calm   3.0mph /  4.8km/h 88% 0.00in /  0mm 0.0 W/m2
22:21 59.7 °F /  15.4 °C 55.8 °F /  13.2 °C 29.91in /  1012.8hPa Calm   2.0mph /  3.2km/h 87% 0.00in /  0mm 0.0 W/m2
22:27 59.5 °F /  15.3 °C 55.6 °F /  13.1 °C 29.91in /  1012.8hPa ESE 0.9mph /  1.4km/h 4.0mph /  6.4km/h 87% 0.00in /  0mm 0.0 W/m2
22:33 59.5 °F /  15.3 °C 55.4 °F /  13 °C 29.91in /  1012.8hPa Calm   2.0mph /  3.2km/h 86% 0.00in /  0mm 0.0 W/m2
22:39 59.4 °F /  15.2 °C 55.2 °F /  12.9 °C 29.91in /  1012.8hPa Calm   2.0mph /  3.2km/h 86% 0.00in /  0mm 0.0 W/m2
22:45 59.4 °F /  15.2 °C 55.2 °F /  12.9 °C 29.91in /  1012.8hPa Calm     86% 0.00in /  0mm 0.0 W/m2
22:51 59.4 °F /  15.2 °C 55.4 °F /  13 °C 29.91in /  1012.8hPa Calm     87% 0.00in /  0mm 0.0 W/m2
22:57 59.4 °F /  15.2 °C 55.4 °F /  13 °C 29.91in /  1012.8hPa Calm     87% 0.00in /  0mm 0.0 W/m2
23:03 59.2 °F /  15.1 °C 55.4 °F /  13 °C 29.91in /  1012.8hPa Calm     87% 0.00in /  0mm 0.0 W/m2
23:09 59.0 °F /  15 °C 55.4 °F /  13 °C 29.92in /  1013.1hPa Calm     88% 0.00in /  0mm 0.0 W/m2
23:15 58.8 °F /  14.9 °C 55.2 °F /  12.9 °C 29.92in /  1013.1hPa Calm     88% 0.00in /  0mm 0.0 W/m2
23:21 58.6 °F /  14.8 °C 55.0 °F /  12.8 °C 29.92in /  1013.1hPa Calm   2.0mph /  3.2km/h 88% 0.00in /  0mm 0.0 W/m2
23:27 58.5 °F /  14.7 °C 54.9 °F /  12.7 °C 29.93in /  1013.4hPa ESE 2.0mph /  3.2km/h 3.0mph /  4.8km/h 88% 0.00in /  0mm 0.0 W/m2
23:33 58.5 °F /  14.7 °C 54.9 °F /  12.7 °C 29.93in /  1013.4hPa SE 0.9mph /  1.4km/h 5.0mph /  8km/h 88% 0.00in /  0mm 0.0 W/m2
23:39 58.5 °F /  14.7 °C 54.7 °F /  12.6 °C 29.93in /  1013.4hPa SE 0.9mph /  1.4km/h 3.0mph /  4.8km/h 87% 0.00in /  0mm 0.0 W/m2
23:45 58.5 °F /  14.7 °C 54.7 °F /  12.6 °C 29.93in /  1013.4hPa Calm   1.0mph /  1.6km/h 87% 0.00in /  0mm 0.0 W/m2
23:51 58.5 °F /  14.7 °C 54.7 °F /  12.6 °C 29.93in /  1013.4hPa Calm   1.0mph /  1.6km/h 87% 0.00in /  0mm 0.0 W/m2
23:57 58.5 °F /  14.7 °C 54.9 °F /  12.7 °C 29.93in /  1013.4hPa Calm     88% 0.00in /  0mm 0.0 W/m2
Olympia, Windhoek, Namibia
Compliments of Weather Underground - 3 mb